Kabetogama, Minnesota
Current Conditions -  °F | °C
As of 10:31 AM on Tuesday 21 Oct 2014 (Local Time) from KINL Reporting Station
Scattered Clouds Scattered Clouds  
Wind Chill: 39°   Ceiling: Unl
Heat Index: 44°   Visibility: 10mi
Dew Point: 35°   Wind: 9mph
Humidity: 71%   Direction: 150°SSE
Pressure: 30.19"   Gusts: NA
Location:  48.5197°N, 92.902°W
Report Text: KINL 211531Z AUTO 15008KT 10SM SCT019 07/02 A3019 RMK AO2 T00670017
Loading
Personal Weather Stations






























Interactive Weather Map
Tropical Storm Tracking
New forecast layout! Learn more

10-Day Weather Forecast

Advertisements
Track Severe Weather on mobile